Home > Products > Valid Products > TAF

000
FTUS46 KOTX 202320
TAFEAT
TAF
KEAT 202320Z 2100/2124 11008KT P6SM SCT150 BKN200
     FM210700 31005KT P6SM BKN150 OVC200
     FM211200 29005KT P6SM BKN100 OVC150
     FM211500 28006KT P6SM BKN050 OVC100
     FM212100 13006KT P6SM VCSH BKN050 OVC100=



000
FTUS46 KOTX 202320
TAFSFF
TAF
KSFF 202320Z 2100/2124 19008KT P6SM SCT060 BKN200
     FM210200 14003KT P6SM SCT100 BKN150
     FM211300 VRB02KT P6SM BKN100 OVC150
     FM211700 07003KT P6SM BKN060 OVC100=



000
FTUS46 KOTX 202320
TAFLWS
TAF
KLWS 202320Z 2100/2124 VRB04KT P6SM BKN200
     FM210200 14004KT P6SM SCT100 BKN150
     FM211600 06005KT P6SM BKN120 OVC150=



000
FTUS46 KOTX 202320
TAFMWH
TAF
KMWH 202320Z 2100/2124 18007KT P6SM SCT120 BKN200
     FM211200 01008KT P6SM BKN100 OVC150
     FM211500 35009KT P6SM BKN050 OVC100
     FM212100 14004KT P6SM VCSH BKN050 OVC100=



000
FTUS46 KOTX 202320
TAFCOE
TAF
KCOE 202320Z 2100/2124 21007KT P6SM BKN070 BKN200
     FM210300 13005KT P6SM SCT120 BKN150
     FM211500 06008KT P6SM BKN100 OVC150
      AMD LTD TO CLD VIS AND WIND=



000
FTUS46 KOTX 202320
TAFPUW
TAF
KPUW 202320Z 2100/2124 20008KT P6SM SCT060 BKN200
     FM210300 09002KT P6SM SCT100 BKN150
     FM211500 10010KT P6SM BKN120 OVC150=



000
FTUS46 KOTX 202320
TAFGEG
TAF
KGEG 202320Z 2100/2124 18010KT P6SM SCT060 BKN200
     FM210200 16004KT P6SM SCT100 BKN150
     FM211300 09005KT P6SM BKN100 OVC150
     FM211700 07007KT P6SM BKN060 OVC100=



000
FTUS46 KOTX 202119 AAA
TAFMWH
TAF AMD
KMWH 202119Z 2021/2118 18012G18KT P6SM SCT250
     FM210000 16006KT P6SM SCT120 BKN200
     FM211200 01008KT P6SM BKN100 OVC150
     FM211500 35009KT P6SM BKN050 OVC100=



000
FTUS46 KOTX 201729
TAFPUW
TAF
KPUW 201729Z 2018/2118 22012KT P6SM SCT030 SCT250
     FM210300 09002KT P6SM SCT100 BKN150
     FM211500 10010KT P6SM BKN120 OVC150=



000
FTUS46 KOTX 201729
TAFCOE
TAF
KCOE 201729Z 2018/2118 21011KT P6SM SCT030 BKN080
     FM210300 13005KT P6SM SCT120 BKN150
     FM211500 06008KT P6SM BKN100 OVC150
      AMD LTD TO CLD VIS AND WIND=



000
FTUS46 KOTX 201729
TAFGEG
TAF
KGEG 201729Z 2018/2118 21012KT P6SM FEW030 SCT080 SCT250
     FM210200 16004KT P6SM SCT100 BKN150
     FM211300 09005KT P6SM BKN100 OVC150
     FM211700 07007KT P6SM BKN060 OVC100=



000
FTUS46 KOTX 201729
TAFSFF
TAF
KSFF 201729Z 2018/2118 21008KT P6SM FEW030 SCT080 SCT250
     FM210200 14003KT P6SM SCT100 BKN150
     FM211300 VRB02KT P6SM BKN100 OVC150
     FM211700 07003KT P6SM BKN060 OVC100=



000
FTUS46 KOTX 201729
TAFMWH
TAF
KMWH 201729Z 2018/2118 20008KT P6SM FEW250
     FM210000 16006KT P6SM SCT120 OVC200
     FM211200 01008KT P6SM BKN100 OVC150
     FM211500 35009KT P6SM BKN050 OVC100=



000
FTUS46 KOTX 201729
TAFLWS
TAF
KLWS 201729Z 2018/2118 VRB04KT P6SM FEW250
     FM210200 14004KT P6SM SCT100 BKN150
     FM211600 06005KT P6SM BKN120 OVC150=



000
FTUS46 KOTX 201729
TAFEAT
TAF
KEAT 201729Z 2018/2118 13006KT P6SM SCT150 BKN200
     FM210700 31004KT P6SM BKN150 OVC200
     FM211200 29005KT P6SM BKN100 OVC150
     FM211500 28006KT P6SM BKN050 OVC100=



000
FTUS46 KOTX 201138
TAFCOE
TAF
KCOE 201138Z 2012/2112 21010KT P6SM SCT015
     FM201800 22009KT P6SM SCT050 BKN150
     FM210300 13005KT P6SM SCT150 BKN200
     FM210800 06008KT P6SM SCT150 OVC200
      AMD LTD TO CLD VIS AND WIND=



000
FTUS46 KOTX 201138
TAFEAT
TAF
KEAT 201138Z 2012/2112 31006KT P6SM SCT180 BKN250
     FM201900 13006KT P6SM SCT120 BKN150 OVC200
     FM210600 31004KT P6SM SCT120 BKN150 OVC200=



000
FTUS46 KOTX 201138
TAFPUW
TAF
KPUW 201138Z 2012/2112 22012KT P6SM FEW030
     FM202000 23010KT P6SM SCT045 BKN150
     FM210300 09002KT P6SM SCT150 BKN200
     FM210800 10008KT P6SM BKN150 OVC200=



000
FTUS46 KOTX 201138
TAFMWH
TAF
KMWH 201138Z 2012/2112 20006KT P6SM SCT250
     FM202000 20010KT P6SM BKN140 OVC200
     FM210200 14006KT P6SM SCT140 OVC200
     FM210800 01008KT P6SM BKN140 OVC200=



000
FTUS46 KOTX 201138
TAFLWS
TAF
KLWS 201138Z 2012/2112 VRB04KT P6SM SKC
     FM201700 34007KT P6SM SCT200
     FM210200 15004KT P6SM OVC200=



000
FTUS46 KOTX 201138
TAFGEG
TAF
KGEG 201138Z 2012/2112 20011KT P6SM FEW015
     FM201600 21010KT P6SM FEW035
     FM202000 22010G15KT P6SM SCT050 BKN180
     FM210300 14005KT P6SM SCT150 BKN200
     FM210800 07004KT P6SM BKN150 OVC200=



000
FTUS46 KOTX 201138
TAFSFF
TAF
KSFF 201138Z 2012/2112 21005KT P6SM FEW020
     FM202000 22009KT P6SM SCT050 BKN180
     FM210300 06003KT P6SM BKN150 OVC200=



000
FTUS46 KOTX 200933 AAA
TAFSFF
TAF AMD
KSFF 200933Z 2010/2106 22010KT P6SM SKC
     FM201200 21008KT P6SM FEW020
     FM201600 22008KT P6SM FEW040
     FM202000 22010G15KT P6SM SCT050 BKN090
     FM210300 13002KT P6SM SCT080 BKN120 BKN200=



000
FTUS46 KOTX 200931 AAA
TAFGEG
TAF AMD
KGEG 200931Z 2010/2106 21013KT P6SM SKC
     FM201200 20011KT P6SM FEW015
     FM201600 21010KT P6SM FEW035
     FM202000 22010G15KT P6SM SCT050 BKN090
     FM210300 15005KT P6SM SCT080 BKN120 BKN200=



000
FTUS46 KOTX 200749 AAA
TAFCOE
TAF AMD
KCOE 200749Z 2008/2106 21010KT P6SM BKN090
     FM201100 19007KT P6SM SCT100
     FM202000 22008G15KT P6SM SCT050 BKN090
     FM210300 13005KT P6SM SCT080 BKN120 BKN200
      AMD LTD TO CLD VIS AND WIND=



000
FTUS46 KOTX 200730 AAA
TAFPUW
TAF AMD
KPUW 200730Z 2007/2106 23015KT P6SM SCT040
     FM201000 24012KT P6SM SCT080
     FM202000 23009G15KT P6SM SCT050 BKN090
     FM210300 09002KT P6SM SCT120 BKN200=



000
FTUS46 KOTX 200520
TAFCOE
TAF
KCOE 200520Z 2006/2106 24010G20KT P6SM BKN090
     FM201100 19008KT P6SM SCT100
     FM202000 22008G15KT P6SM SCT050 BKN090
     FM210300 13005KT P6SM SCT080 BKN120 BKN200
      AMD LTD TO CLD VIS AND WIND=



000
FTUS46 KOTX 200520
TAFMWH
TAF
KMWH 200520Z 2006/2106 25012KT P6SM SCT080
     FM201200 23010KT P6SM SKC
     FM202000 20010G15KT P6SM SCT080 BKN120
     FM210200 14006KT P6SM SCT120 BKN200=



000
FTUS46 KOTX 200520
TAFSFF
TAF
KSFF 200520Z 2006/2106 24014G20KT P6SM BKN090
     FM201100 22010KT P6SM FEW090
     FM202000 22010G15KT P6SM SCT050 BKN090
     FM210300 13002KT P6SM SCT080 BKN120 BKN200=



000
FTUS46 KOTX 200520
TAFGEG
TAF
KGEG 200520Z 2006/2106 25015G20KT P6SM BKN090
     FM201100 22011KT P6SM FEW090
     FM202000 22010G15KT P6SM SCT050 BKN090
     FM210300 15005KT P6SM SCT080 BKN120 BKN200=



000
FTUS46 KOTX 200520
TAFEAT
TAF
KEAT 200520Z 2006/2106 30011KT P6SM FEW090
     FM202000 30008KT P6SM SCT080 SCT120
     FM202200 13005KT P6SM SCT080 BKN120 BKN200=



000
FTUS46 KOTX 200520
TAFLWS
TAF
KLWS 200520Z 2006/2106 27013G25KT P6SM FEW100
     FM201000 28008KT P6SM FEW100
     FM202000 34008G14KT P6SM SCT080 BKN120
     FM210300 12003KT P6SM SCT120 BKN200=



000
FTUS46 KOTX 200520
TAFPUW
TAF
KPUW 200520Z 2006/2106 24020G29KT P6SM SCT080
     FM201000 24012KT P6SM SCT080
     FM202000 23009G15KT P6SM SCT050 BKN090
     FM210300 09002KT P6SM SCT120 BKN200=



000
FTUS46 KOTX 200159 AAB
TAFCOE
TAF AMD
KCOE 200159Z 2002/2024 22012G43KT P6SM VCSH SCT070 BKN120 BKN200
     FM200400 21010KT P6SM BKN090
     FM201500 19008KT P6SM SCT100
     FM202000 22008G15KT P6SM SCT050 BKN090
      AMD LTD TO CLD VIS AND WIND=



000
FTUS46 KOTX 200153 AAA
TAFCOE
TAF AMD
KCOE 200153Z 2002/2024 22012G43KT P6SM VCSH SCT070 BKN120 BKN200
     FM200900 21010KT P6SM BKN090
     FM201500 19008KT P6SM SCT100
     FM202000 22008G15KT P6SM SCT050 BKN090
      AMD LTD TO CLD VIS AND WIND=



000
FTUS46 KOTX 192322
TAFEAT
TAF
KEAT 192322Z 2000/2024 30015G20KT P6SM BKN090
     FM200300 30011KT P6SM FEW090
     FM202000 30008KT P6SM SCT080 SCT120=



000
FTUS46 KOTX 192322
TAFPUW
TAF
KPUW 192322Z 2000/2024 26014G22KT P6SM BKN080 BKN120 OVC200
     FM200200 24022G31KT P6SM SCT080
     FM201000 24012KT P6SM SCT080
     FM202000 23009G15KT P6SM SCT050 BKN090=



000
FTUS46 KOTX 192322
TAFGEG
TAF
KGEG 192322Z 2000/2024 21015G26KT P6SM VCSH SCT070 BKN120 BKN200
     FM200400 23020G28KT P6SM BKN090
     FM201100 22011KT P6SM FEW090
     FM202000 22010G15KT P6SM SCT050 BKN090=



000
FTUS46 KOTX 192322
TAFSFF
TAF
KSFF 192322Z 2000/2024 24011G21KT P6SM VCSH SCT070 BKN120 BKN200
     FM200400 23014G22KT P6SM BKN090
     FM201100 22010KT P6SM FEW090
     FM202000 22010G15KT P6SM SCT050 BKN090=



000
FTUS46 KOTX 192322
TAFMWH
TAF
KMWH 192322Z 2000/2024 22015G22KT P6SM VCSH BKN080 BKN100 BKN200
     FM200400 25016G24KT P6SM SCT080
     FM200800 23011KT P6SM SKC
     FM202000 20010G15KT P6SM SCT080 BKN120=



000
FTUS46 KOTX 192322
TAFCOE
TAF
KCOE 192322Z 2000/2024 22012G21KT P6SM VCSH SCT070 BKN120 BKN200
     FM200900 21010KT P6SM BKN090
     FM201500 19008KT P6SM SCT100
     FM202000 22008G15KT P6SM SCT050 BKN090
      AMD LTD TO CLD VIS AND WIND=



000
FTUS46 KOTX 192322
TAFLWS
TAF
KLWS 192322Z 2000/2024 30012G20KT P6SM SCT080 BKN120 OVC200
     FM200300 27013G25KT P6SM FEW100
     FM200700 28008KT P6SM FEW100
     FM202000 34008G14KT P6SM SCT080 BKN120=



000
FTUS46 KOTX 192148 AAA
TAFGEG
TAF AMD
KGEG 192148Z 1922/2018 20012G19KT P6SM SCT060 OVC120
     FM192300 23015G26KT P6SM VCSH SCT050 OVC080
     FM200400 23020G28KT P6SM BKN090
     FM201100 22011KT P6SM FEW090=



000
FTUS46 KOTX 191743 CCA
TAFEAT
TAF COR
KEAT 191743Z 1918/2018 30006KT P6SM BKN100 OVC200
     FM192100 28010G17KT P6SM VCSH SCT070 OVC100
     FM192300 30020G30KT P6SM BKN090
     FM200300 30011KT P6SM FEW090=



000
FTUS46 KOTX 191743 CCA
TAFLWS
TAF COR
KLWS 191743Z 1918/2018 08008KT P6SM FEW100 BKN200
     FM192000 31008KT P6SM SCT100 BKN140
     FM192300 29014G23KT P6SM BKN080 OVC120
     FM200300 27013G25KT P6SM FEW100
     FM200700 28008KT P6SM FEW100=



000
FTUS46 KOTX 191743 CCA
TAFMWH
TAF COR
KMWH 191743Z 1918/2018 01006KT P6SM FEW110 OVC200
     FM191930 19008KT P6SM BKN100 OVC160
     FM192200 23015G24KT P6SM VCSH BKN080 OVC100
     FM200400 25016G24KT P6SM SCT080
     FM200800 23011KT P6SM SKC=



000
FTUS46 KOTX 191739
TAFCOE
TAF
KCOE 191739Z 1918/2018 04007KT P6SM SCT200
     FM192000 20008KT P6SM SCT080 OVC120
     FM200000 22012G21KT P6SM VCSH SCT050 OVC080
     FM200900 21010KT P6SM BKN090
     FM201500 19008KT P6SM SCT100
      AMD LTD TO CLD VIS AND WIND=



000
FTUS46 KOTX 191739
TAFEAT
TAF
KEAT 191739Z 1918/2018 30006KT P6SM SKC
     FM192000 29012G20KT P6SM VCSH SCT070 OVC100
     FM192300 29020G30KT P6SM BKN090
     FM200300 30012KT P6SM FEW090=



000
FTUS46 KOTX 191739
TAFMWH
TAF
KMWH 191739Z 1918/2018 01006KT P6SM FEW110
     FM191900 21010KT P6SM SCT080 BKN100 OVC120
     FM192100 24018G27KT P6SM BKN080 OVC100
     FM200400 25016G24KT P6SM SKC
     FM200800 23012KT P6SM SKC=



000
FTUS46 KOTX 191739
TAFPUW
TAF
KPUW 191739Z 1918/2018 10015KT P6SM FEW100 BKN200
     FM192000 19010KT P6SM SCT090 BKN120
     FM192300 26014G26KT P6SM BKN080 OVC120
     FM200200 24022G31KT P6SM SCT080
     FM201000 24012KT P6SM SCT080=



000
FTUS46 KOTX 191739
TAFGEG
TAF
KGEG 191739Z 1918/2018 06008KT P6SM SCT100 BKN200
     FM192000 19011KT P6SM SCT070 OVC110
     FM192300 23015G26KT P6SM VCSH SCT050 OVC080
     FM200400 23020G28KT P6SM BKN090
     FM201100 22011KT P6SM FEW090=



000
FTUS46 KOTX 191739
TAFLWS
TAF
KLWS 191739Z 1918/2018 08008KT P6SM FEW100 BKN200
     FM192000 31008KT P6SM SCT100 BKN140
     FM192300 29014G23KT P6SM BKN080 OVC120
     FM200300 28013G21KT P6SM FEW100
     FM200700 26010KT P6SM FEW100=



000
FTUS46 KOTX 191739
TAFSFF
TAF
KSFF 191739Z 1918/2018 12007KT P6SM FEW110 BKN200
     FM192000 19007KT P6SM SCT070 OVC110
     FM192300 24011G21KT P6SM VCSH SCT050 OVC080
     FM200400 23014G22KT P6SM BKN090
     FM201100 22010KT P6SM FEW090=



000
FTUS46 KOTX 191142 CCA
TAFEAT
TAF COR
KEAT 191142Z 1912/2012 31006KT P6SM FEW100 BKN150 OVC200
     FM192000 29012G20KT P6SM VCSH SCT070 OVC100
     FM192300 29020G30KT P6SM BKN090
     FM200300 30012KT P6SM FEW090=



000
FTUS46 KOTX 191139
TAFSFF
TAF
KSFF 191139Z 1912/2012 06004KT P6SM FEW180 SCT250
     FM192000 22010G18KT P6SM SCT080 OVC100
     FM192300 25015G23KT P6SM VCSH SCT060 OVC090
     FM200500 24017G25KT P6SM BKN100
     FM200800 22014KT P6SM SCT100=



000
FTUS46 KOTX 191139
TAFMWH
TAF
KMWH 191139Z 1912/2012 02008KT P6SM FEW160 BKN200
     FM191700 14008KT P6SM SCT080 BKN100 OVC120
     FM191900 21010KT P6SM SCT080 BKN100 OVC120
     FM192100 24018G27KT P6SM BKN080 OVC100
     FM200400 25016G24KT P6SM SKC
     FM200800 23012KT P6SM SKC=



000
FTUS46 KOTX 191139
TAFLWS
TAF
KLWS 191139Z 1912/2012 08007KT P6SM SCT250
     FM192000 30012KT P6SM SCT100 BKN140
     FM192300 30018G26KT P6SM BKN100 OVC120
     FM200300 28013G21KT P6SM FEW100
     FM200700 26010KT P6SM FEW100=



000
FTUS46 KOTX 191139
TAFEAT
TAF
KEAT 191139Z 1912/2012 31006KT P6SM FEW100 BKN150 OVC200
     FM192000 29012G20KT P6SM SCT080 BKN100 OVC200
     FM192300 28027G30KT P6SM BKN080 BKN100 BKN200=



000
FTUS46 KOTX 191139
TAFCOE
TAF
KCOE 191139Z 1912/2012 08010KT P6SM FEW180 SCT250
     FM192000 22010G18KT P6SM SCT080 OVC100
     FM200000 22014G22KT P6SM VCSH SCT050 BKN070 OVC090
     FM200900 21012KT P6SM BKN090
      AMD LTD TO CLD VIS AND WIND=



000
FTUS46 KOTX 191139
TAFPUW
TAF
KPUW 191139Z 1912/2012 10014KT P6SM FEW180 SCT250
     FM192000 22014G22KT P6SM SCT090 BKN120
     FM192300 26020G28KT P6SM BKN080 OVC120
     FM200200 24022G30KT P6SM SCT080
     FM200800 24016KT P6SM SCT080=



000
FTUS46 KOTX 191139
TAFGEG
TAF
KGEG 191139Z 1912/2012 13007KT P6SM FEW180 SCT250
     FM192000 22015G23KT P6SM SCT070 OVC100
     FM192300 23018G26KT P6SM VCSH SCT050 BKN070 OVC090
     FM200400 23020G28KT P6SM BKN090
     FM200900 22016KT P6SM FEW090=



000
FTUS46 KOTX 190520
TAFPUW
TAF
KPUW 190520Z 1906/2006 09006KT P6SM FEW060 FEW250
     FM190800 11007KT P6SM SCT250
     FM191300 10014KT P6SM SCT100 BKN200
     FM192300 24015G25KT P6SM SCT080 BKN100 BKN200
     FM200300 24020G30KT P6SM VCSH BKN080 BKN100 BKN200=



000
FTUS46 KOTX 190520
TAFEAT
TAF
KEAT 190520Z 1906/2006 30012KT P6SM BKN200
     FM190700 31006KT P6SM FEW150 BKN200
     FM192000 29012G20KT P6SM SCT080 BKN100 OVC200
     FM200000 28027G30KT P6SM BKN080 BKN100 BKN200=



000
FTUS46 KOTX 190520
TAFGEG
TAF
KGEG 190520Z 1906/2006 16005KT P6SM SCT250
     FM191400 16006KT P6SM SCT100 BKN200
     FM192300 22018G29KT P6SM SCT080 BKN100 OVC200
     FM200200 22027G35KT P6SM VCSH BKN080 BKN100 BKN200=



000
FTUS46 KOTX 190520
TAFMWH
TAF
KMWH 190520Z 1906/2006 01004KT P6SM FEW100 BKN200
     FM192200 22015G28KT P6SM SCT080 BKN100 OVC200
     FM200000 22025G35KT P6SM BKN080 BKN100 BKN200=



000
FTUS46 KOTX 190520
TAFSFF
TAF
KSFF 190520Z 1906/2006 VRB03KT P6SM SCT250
     FM191400 16005KT P6SM SCT100 BKN200
     FM192300 23015G26KT P6SM SCT080 BKN100 OVC200
     FM200200 24022G30KT P6SM VCSH BKN080 BKN100 BKN200=



000
FTUS46 KOTX 190520
TAFLWS
TAF
KLWS 190520Z 1906/2006 13004KT P6SM FEW250
     FM191300 10005KT P6SM FEW100 SCT200
     FM192300 31010G20KT P6SM SCT080 BKN100 BKN200
     FM200300 30015G25KT P6SM VCSH BKN080 BKN100 BKN200=



000
FTUS46 KOTX 190520
TAFCOE
TAF
KCOE 190520Z 1906/2006 15006KT P6SM SCT250
     FM191400 10005KT P6SM FEW100 BKN200
     FM192300 22012G26KT P6SM SCT080 BKN100 OVC200
     FM200200 22022G30KT P6SM VCSH BKN080 BKN100 BKN200
      AMD LTD TO CLD VIS AND WIND=



000
FTUS46 KOTX 182320
TAFSFF
TAF
KSFF 182320Z 1900/1924 24014G22KT P6SM SCT070 SCT200
     FM190200 24005KT P6SM FEW250
     FM190400 VRB03KT P6SM SCT250
     FM191400 16005KT P6SM SCT100 BKN200
     FM192300 23015G26KT P6SM SCT080 BKN100 OVC200=



000
FTUS46 KOTX 182320
TAFGEG
TAF
KGEG 182320Z 1900/1924 22015G22KT P6SM SCT070 SCT200
     FM190100 21010KT P6SM FEW250
     FM190600 15005KT P6SM SCT250
     FM191400 16006KT P6SM SCT100 BKN200
     FM192300 22018G29KT P6SM SCT080 BKN100 OVC200=



000
FTUS46 KOTX 182320
TAFCOE
TAF
KCOE 182320Z 1900/1924 24015G23KT P6SM SCT070 SCT200
     FM190230 13006KT P6SM SCT250
     FM191400 10005KT P6SM FEW100 BKN200
     FM192300 22012G26KT P6SM SCT080 BKN100 OVC200
      AMD LTD TO CLD VIS AND WIND=



000
FTUS46 KOTX 182320
TAFPUW
TAF
KPUW 182320Z 1900/1924 24012G22KT P6SM BKN060 BKN200
     FM190200 22007KT P6SM FEW060 FEW250
     FM190800 12007KT P6SM SCT250
     FM191300 10014KT P6SM SCT100 BKN200
     FM192300 24015G26KT P6SM SCT080 BKN100 BKN200=



000
FTUS46 KOTX 182320
TAFMWH
TAF
KMWH 182320Z 1900/1924 26010KT P6SM BKN200
     FM190600 01004KT P6SM FEW100 BKN200
     FM192200 22015G28KT P6SM SCT080 BKN100 OVC200=



000
FTUS46 KOTX 182320
TAFEAT
TAF
KEAT 182320Z 1900/1924 30015G20KT P6SM BKN200
     FM190200 30012KT P6SM BKN200
     FM190700 31006KT P6SM FEW150 BKN200
     FM192000 29012G20KT P6SM SCT080 BKN100 OVC200=



000
FTUS46 KOTX 182320
TAFLWS
TAF
KLWS 182320Z 1900/1924 31011G20KT P6SM SCT070 SCT200
     FM190300 VRB04KT P6SM FEW250
     FM191300 10005KT P6SM FEW100 SCT200
     FM192300 31010G20KT P6SM SCT080 BKN100 BKN200=



000
FTUS46 KOTX 182145 AAA
TAFGEG
TAF AMD
KGEG 182145Z 1822/1918 22019G25KT P6SM SCT030
     FM190100 21010KT P6SM FEW250
     FM190600 15005KT P6SM SCT250
     FM191400 16006KT P6SM SCT100 BKN200=



000
FTUS46 KOTX 182002 AAA
TAFMWH
TAF AMD
KMWH 182002Z 1820/1918 26010G19KT P6SM SKC
     FM182300 26011KT P6SM FEW250
     FM190600 01004KT P6SM FEW100 BKN200=



000
FTUS46 KOTX 182002 AAA
TAFLWS
TAF AMD
KLWS 182002Z 1820/1918 26012G19KT P6SM SCT060
     FM190000 28010KT P6SM SKC
     FM190300 VRB04KT P6SM FEW250
     FM191300 10005KT P6SM FEW100 SCT200=



000
FTUS46 KOTX 181738
TAFGEG
TAF
KGEG 181738Z 1818/1918 22019G25KT P6SM SCT030
     FM182100 25018G26KT P6SM SCT050
     FM190100 21010KT P6SM FEW250
     FM190600 15005KT P6SM SCT250
     FM191400 16006KT P6SM SCT100 BKN200=



000
FTUS46 KOTX 181738
TAFCOE
TAF
KCOE 181738Z 1818/1918 23016G25KT P6SM BKN040 OVC060
     FM182300 24015G23KT P6SM FEW060
     FM190230 13006KT P6SM SCT250
     FM191400 10005KT P6SM FEW100 BKN200
      AMD LTD TO CLD VIS AND WIND=



000
FTUS46 KOTX 181738
TAFSFF
TAF
KSFF 181738Z 1818/1918 23018G27KT P6SM SCT030
     FM182300 24012G20KT P6SM FEW050
     FM190200 24005KT P6SM FEW250
     FM190400 VRB03KT P6SM SCT250
     FM191400 16005KT P6SM SCT100 BKN200=



000
FTUS46 KOTX 181738
TAFEAT
TAF
KEAT 181738Z 1818/1918 30019G25KT P6SM SKC
     FM190200 30012KT P6SM BKN250
     FM190700 31006KT P6SM FEW150 BKN200=



000
FTUS46 KOTX 181738
TAFMWH
TAF
KMWH 181738Z 1818/1918 24010KT P6SM SKC
     FM182000 27012G19KT P6SM SKC
     FM182300 27010KT P6SM FEW250
     FM190600 01004KT P6SM FEW100 BKN200=



000
FTUS46 KOTX 181738
TAFPUW
TAF
KPUW 181738Z 1818/1918 24019G28KT P6SM SCT040
     FM190200 VRB04KT P6SM FEW250
     FM190800 12007KT P6SM SCT250
     FM191300 10014KT P6SM SCT100 BKN200=



000
FTUS46 KOTX 181738
TAFLWS
TAF
KLWS 181738Z 1818/1918 28012G19KT P6SM SCT060
     FM190000 28010KT P6SM SKC
     FM190300 VRB04KT P6SM FEW250
     FM191300 10005KT P6SM FEW100 SCT200=



000
FTUS46 KOTX 181526 AAA
TAFSFF
TAF AMD
KSFF 181526Z 1815/1912 21019G25KT P6SM FEW015
     FM182300 24012G20KT P6SM FEW050
     FM190200 24005KT P6SM FEW250
     FM190400 VRB03KT P6SM SCT250=



000
FTUS46 KOTX 181139
TAFCOE
TAF
KCOE 181139Z 1812/1912 23015G23KT P6SM VCSH FEW070
     FM181600 23020G26KT P6SM SCT070
     FM182300 24015G23KT P6SM FEW070
     FM190230 13006KT P6SM SCT250
      AMD LTD TO CLD VIS AND WIND=



000
FTUS46 KOTX 181139
TAFLWS
TAF
KLWS 181139Z 1812/1912 28011G19KT P6SM SCT050
     FM181600 29018G26KT P6SM FEW050
     FM190000 28010KT P6SM SKC
     FM190300 VRB04KT P6SM FEW250=



000
FTUS46 KOTX 181139
TAFMWH
TAF
KMWH 181139Z 1812/1912 26013KT P6SM SKC
     FM181600 26015G23KT P6SM SKC
     FM182000 27012G19KT P6SM SKC
     FM182300 27010KT P6SM FEW250
     FM190600 01004KT P6SM BKN200=



000
FTUS46 KOTX 181139
TAFGEG
TAF
KGEG 181139Z 1812/1912 22018KT P6SM VCSH FEW016
     FM181400 22022G30KT P6SM SCT070
     FM182100 25018G26KT P6SM SCT050
     FM190100 21010KT P6SM FEW250
     FM190600 15005KT P6SM SCT250=



000
FTUS46 KOTX 181139
TAFEAT
TAF
KEAT 181139Z 1812/1912 31014KT P6SM SKC
     FM181600 31020G26KT P6SM SKC
     FM190200 30012KT P6SM BKN250
     FM190700 31006KT P6SM FEW150 BKN200=



000
FTUS46 KOTX 181139
TAFPUW
TAF
KPUW 181139Z 1812/1912 24019G26KT P6SM FEW020
     FM181400 25027G33KT P6SM SKC
     FM182100 26019G26KT P6SM FEW050
     FM190200 VRB04KT P6SM FEW250
     FM190800 12007KT P6SM SCT250=



000
FTUS46 KOTX 181139
TAFSFF
TAF
KSFF 181139Z 1812/1912 22012G20KT P6SM SKC
     FM181400 24016G24KT P6SM SCT070
     FM182300 24012G20KT P6SM FEW050
     FM190200 24005KT P6SM FEW250
     FM190400 VRB03KT P6SM SCT250=



000
FTUS46 KOTX 181008 AAA
TAFMWH
TAF AMD
KMWH 181008Z 1810/1906 26013KT P6SM SKC
     FM181400 27015G23KT P6SM SKC
     FM182000 26012G19KT P6SM SKC
     FM190100 26010G14KT P6SM SKC=



000
FTUS46 KOTX 181006 AAA
TAFPUW
TAF AMD
KPUW 181006Z 1810/1906 24019G26KT P6SM FEW020
     FM181400 24027G33KT P6SM FEW050
     FM182100 26019G26KT P6SM SCT050
     FM190100 22010G15KT P6SM SCT150=



000
FTUS46 KOTX 181004 AAC
TAFSFF
TAF AMD
KSFF 181004Z 1810/1906 22018G23KT P6SM VCSH OVC020
     FM181100 22018G25KT P6SM FEW025 SCT080
     FM181800 24016G22KT P6SM FEW050
     FM182300 24012G20KT P6SM FEW250
     FM190200 24005KT P6SM FEW200=



000
FTUS46 KOTX 180957 AAB
TAFSFF
TAF AMD
KSFF 180957Z 1810/1906 22014G22KT P6SM VCSH OVC020
     FM181300 22017G25KT P6SM FEW080
     FM181800 24016G22KT P6SM FEW050
     FM182300 24012G20KT P6SM FEW250
     FM190200 24005KT P6SM FEW200=



000
FTUS46 KOTX 180949 AAA
TAFSFF
TAF AMD
KSFF 180949Z 1810/1906 20014G22KT P6SM VCSH OVC020
     FM181300 22017G25KT P6SM FEW080
     FM181800 24016G22KT P6SM FEW050
     FM182300 24012G20KT P6SM FEW250
     FM190200 24005KT P6SM FEW200=



000
FTUS46 KOTX 180708 AAA
TAFEAT
TAF AMD
KEAT 180708Z 1807/1906 29016G22KT P6SM FEW070
     FM181100 30012G20KT P6SM SKC
     FM181800 30020G26KT P6SM SKC
     FM190100 30015G20KT P6SM SKC=



000
FTUS46 KOTX 180525 CCA
TAFGEG
TAF COR
KGEG 180525Z 1806/1906 21015G22KT P6SM -SHRA SCT008 BKN012 OVC035
     FM181100 22020G27KT P6SM VCSH SCT012 BKN035
     FM181800 23022KT P6SM BKN050
     FM190100 22020G25KT P6SM SCT050=



000
FTUS46 KOTX 180520
TAFLWS
TAF
KLWS 180520Z 1806/1906 23006KT P6SM -SHRA BKN040 OVC060
     FM181000 28009G15KT P6SM VCSH SCT030 BKN080
     FM181800 30018G25KT P6SM SCT050
     FM190100 28012G16KT P6SM FEW050 SCT100=



000
FTUS46 KOTX 180520
TAFEAT
TAF
KEAT 180520Z 1806/1906 27008KT P6SM VCSH OVC060
     FM180800 31012G22KT P6SM SKC
     FM181800 30020G26KT P6SM SKC
     FM190100 30015G20KT P6SM SKC=



000
FTUS46 KOTX 180520
TAFPUW
TAF
KPUW 180520Z 1806/1906 18005KT P6SM -SHRA SCT015 BKN040 BKN080
     FM180800 24016G22KT P6SM -SHRA BKN040 BKN080
     FM181000 24019G26KT P6SM VCSH SCT009 BKN025
     FM181400 24027G33KT P6SM SCT025 BKN040
     FM182100 26019G26KT P6SM SCT050 BKN150
     FM190100 22010G15KT P6SM SCT150=



000
FTUS46 KOTX 180520
TAFSFF
TAF
KSFF 180520Z 1806/1906 20013KT P6SM -SHRA SCT015 OVC035
     FM181100 22013G20KT P6SM VCSH SCT015 BKN040
     FM181800 24016G22KT P6SM BKN050
     FM182300 24014G20KT P6SM BKN100
     FM190100 24012G19KT P6SM SCT100=



000
FTUS46 KOTX 180520
TAFMWH
TAF
KMWH 180520Z 1806/1906 24017G25KT P6SM VCSH BKN070 OVC120
     FM181200 27020G27KT P6SM SCT100
     FM182000 26015G19KT P6SM SKC
     FM190100 26010G14KT P6SM SKC=



000
FTUS46 KOTX 180520
TAFGEG
TAF
KGEG 180520Z 1806/1906 21015G22KT P6SM -SHRA SCT012 OVC035
     FM181100 22020G27KT P6SM VCSH SCT012 BKN035
     FM181800 23022KT P6SM BKN050
     FM190100 22020G25KT P6SM SCT050=



000
FTUS46 KOTX 180520
TAFCOE
TAF
KCOE 180520Z 1806/1906 20010KT P6SM -SHRA SCT015 BKN030
     FM181000 21014G22KT P6SM -SHRA OVC030
     FM181500 23020G26KT P6SM BKN025
     FM182000 23021G28KT P6SM BKN050
     FM190100 22012G20KT P6SM SCT050
      AMD LTD TO CLD VIS AND WIND=



    US Dept of Commerce
    National Oceanic and Atmospheric Administration
    National Weather Service
    1325 East West Highway
    Silver Spring, MD 20910
    Page Author: NWS Internet Services Team
Disclaimer
Information Quality
Credits
Glossary
Privacy Policy
Freedom of Information Act (FOIA)
About Us
Career Opportunities